createdAt,value
2022-09-09T00:02:14.173Z,0.90
2022-09-09T00:04:55.205Z,1.20
2022-09-09T00:07:48.470Z,1.10
2022-09-09T00:10:45.182Z,1.00
2022-09-09T00:13:38.261Z,1.10
2022-09-09T00:16:26.962Z,1.27
2022-09-09T00:19:34.957Z,1.00
2022-09-09T00:22:29.601Z,1.00
2022-09-09T00:25:14.016Z,1.20
2022-09-09T00:27:51.674Z,1.30
2022-09-09T00:30:32.742Z,1.37
2022-09-09T00:33:15.463Z,1.50
2022-09-09T00:35:48.289Z,1.40
2022-09-09T00:38:22.142Z,1.20
2022-09-09T00:41:00.287Z,1.20
2022-09-09T00:43:36.572Z,1.30
2022-09-09T00:46:36.788Z,1.20
2022-09-09T00:49:30.676Z,1.30
2022-09-09T00:52:43.068Z,1.27
2022-09-09T00:55:57.166Z,1.27
2022-09-09T00:58:31.338Z,1.50
2022-09-09T01:01:29.209Z,1.03
2022-09-09T01:04:01.758Z,1.37
2022-09-09T01:06:42.169Z,1.30
2022-09-09T01:09:37.537Z,1.00
2022-09-09T01:12:45.000Z,1.40
2022-09-09T01:15:42.489Z,1.30
2022-09-09T01:18:20.074Z,1.00
2022-09-09T01:21:03.509Z,1.10
2022-09-09T01:24:10.702Z,1.10
2022-09-09T01:27:11.298Z,1.20
2022-09-09T01:29:43.204Z,1.40
2022-09-09T01:32:51.632Z,1.63
2022-09-09T01:35:36.319Z,1.20
2022-09-09T01:38:06.063Z,1.30
2022-09-09T01:40:37.269Z,1.20
2022-09-09T01:43:07.909Z,1.33
2022-09-09T01:48:23.225Z,1.00
2022-09-09T01:51:03.969Z,1.10
2022-09-09T01:53:34.888Z,1.00
2022-09-09T01:56:17.405Z,0.90
2022-09-09T01:59:11.528Z,1.00
2022-09-09T02:02:33.861Z,0.90
2022-09-09T02:05:41.072Z,1.37
2022-09-09T02:08:47.533Z,1.00
2022-09-09T02:11:23.349Z,1.20
2022-09-09T02:14:15.447Z,1.10
2022-09-09T02:16:59.109Z,0.90
2022-09-09T02:19:49.973Z,1.13
2022-09-09T02:22:42.444Z,0.90
2022-09-09T02:25:18.841Z,1.10
2022-09-09T02:27:53.535Z,1.10
2022-09-09T02:30:23.985Z,0.90
2022-09-09T02:33:14.031Z,1.07
2022-09-09T02:35:49.955Z,1.10
2022-09-09T02:38:30.386Z,1.00
2022-09-09T02:41:04.950Z,0.87
2022-09-09T02:47:01.234Z,1.10
2022-09-09T02:49:47.222Z,1.00
2022-09-09T02:52:20.236Z,0.80
2022-09-09T02:55:00.428Z,0.97
2022-09-09T02:57:32.314Z,1.00
2022-09-09T03:00:03.727Z,1.13
2022-09-09T03:02:34.285Z,1.10
2022-09-09T03:07:53.564Z,1.17
2022-09-09T03:10:23.887Z,1.13
2022-09-09T03:12:52.541Z,0.93
2022-09-09T03:23:39.233Z,0.87
2022-09-09T03:26:09.458Z,1.00
2022-09-09T03:31:36.660Z,0.90
2022-09-09T03:34:06.892Z,1.00
2022-09-09T03:36:40.719Z,1.30
2022-09-09T03:39:09.377Z,1.00
2022-09-09T03:41:39.839Z,1.10
2022-09-09T03:44:21.173Z,1.10
2022-09-09T03:49:34.444Z,1.03
2022-09-09T03:52:03.113Z,1.30
2022-09-09T03:54:31.648Z,1.23
2022-09-09T03:57:02.133Z,1.23
2022-09-09T03:59:31.934Z,1.30
2022-09-09T04:02:01.222Z,1.13
2022-09-09T04:04:33.391Z,1.20
2022-09-09T04:07:03.426Z,1.30
2022-09-09T04:09:38.361Z,1.20
2022-09-09T04:12:08.620Z,1.07
2022-09-09T04:14:37.885Z,1.23
2022-09-09T04:17:07.391Z,1.27
2022-09-09T04:19:37.230Z,1.10
2022-09-09T04:22:08.247Z,1.47
2022-09-09T04:24:37.399Z,1.27
2022-09-09T04:27:08.546Z,1.20
2022-09-09T04:29:37.446Z,1.10
2022-09-09T04:32:06.377Z,1.20
2022-09-09T04:37:20.266Z,1.30
2022-09-09T04:39:59.729Z,1.30
2022-09-09T04:42:29.967Z,1.30
2022-09-09T04:45:15.580Z,1.50
2022-09-09T04:47:46.566Z,1.70
2022-09-09T04:50:18.086Z,1.40
2022-09-09T04:52:50.337Z,1.40
2022-09-09T04:55:23.984Z,1.20
2022-09-09T04:57:59.534Z,1.40
2022-09-09T05:00:29.063Z,1.40
2022-09-09T05:02:58.492Z,1.47
2022-09-09T05:08:12.331Z,1.37
2022-09-09T05:10:43.565Z,1.40
2022-09-09T05:13:15.435Z,1.30
2022-09-09T05:15:58.082Z,1.60
2022-09-09T05:18:28.504Z,1.57
2022-09-09T05:21:04.735Z,1.70
2022-09-09T05:23:37.253Z,1.50
2022-09-09T05:26:09.084Z,1.60
2022-09-09T05:28:40.779Z,1.70
2022-09-09T05:31:15.672Z,1.60
2022-09-09T05:33:47.793Z,1.80
2022-09-09T05:36:22.098Z,1.80
2022-09-09T05:38:56.508Z,1.90
2022-09-09T05:41:27.316Z,1.97
2022-09-09T05:44:02.550Z,1.87
2022-09-09T05:46:31.451Z,1.87
2022-09-09T05:49:00.263Z,1.80
2022-09-09T05:51:35.993Z,1.70
2022-09-09T05:54:09.531Z,1.70
2022-09-09T05:56:43.126Z,1.70
2022-09-09T06:02:03.398Z,1.90
2022-09-09T06:04:38.175Z,1.77
2022-09-09T06:07:10.576Z,2.10
2022-09-09T06:09:37.941Z,2.00
2022-09-09T06:12:07.297Z,1.70
2022-09-09T06:14:44.382Z,1.77
2022-09-09T06:17:19.037Z,1.77
2022-09-09T06:22:35.137Z,1.63
2022-09-09T06:27:51.935Z,1.60
2022-09-09T06:30:23.021Z,1.60
2022-09-09T06:32:59.094Z,1.50
2022-09-09T06:38:17.028Z,1.70
2022-09-09T06:40:55.755Z,1.60
2022-09-09T06:43:25.988Z,1.70
2022-09-09T06:46:02.769Z,1.40
2022-09-09T06:48:36.227Z,1.70
2022-09-09T06:51:12.565Z,1.77
2022-09-09T06:53:49.753Z,1.50
2022-09-09T06:56:18.162Z,1.83
2022-09-09T06:58:50.244Z,1.80
2022-09-09T07:01:29.564Z,1.93
2022-09-09T07:04:03.905Z,1.80
2022-09-09T07:06:44.068Z,1.60
2022-09-09T07:09:19.751Z,1.60
2022-09-09T07:11:59.136Z,1.70
2022-09-09T07:14:46.354Z,1.50
2022-09-09T07:17:17.529Z,1.50
2022-09-09T07:19:51.241Z,1.70
2022-09-09T07:22:23.335Z,1.70
2022-09-09T07:24:58.063Z,1.60
2022-09-09T07:27:27.225Z,1.50
2022-09-09T07:32:43.036Z,1.80
2022-09-09T07:35:13.516Z,1.60
2022-09-09T07:37:50.717Z,1.60
2022-09-09T07:40:23.707Z,1.40
2022-09-09T07:42:54.893Z,1.90
2022-09-09T07:48:11.012Z,1.20
2022-09-09T07:50:38.756Z,1.40
2022-09-09T07:53:11.460Z,1.77
2022-09-09T07:55:42.497Z,1.40
2022-09-09T07:58:11.845Z,1.30
2022-09-09T08:00:48.161Z,1.40
2022-09-09T08:03:17.167Z,1.40
2022-09-09T08:05:48.301Z,1.40
2022-09-09T08:08:22.927Z,1.30
2022-09-09T08:10:52.570Z,1.50
2022-09-09T08:13:22.753Z,1.33
2022-09-09T08:16:00.545Z,1.23
2022-09-09T08:18:30.064Z,1.30
2022-09-09T08:21:01.500Z,1.37
2022-09-09T08:23:42.812Z,1.60
2022-09-09T08:26:22.986Z,1.50
2022-09-09T08:28:58.098Z,1.43
2022-09-09T08:31:39.614Z,1.50
2022-09-09T08:34:18.843Z,1.60
2022-09-09T08:36:54.172Z,1.67
2022-09-09T08:39:28.211Z,2.00
2022-09-09T08:42:23.632Z,1.80
2022-09-09T08:45:30.905Z,1.80
2022-09-09T08:48:47.474Z,1.80
2022-09-09T08:51:21.098Z,1.70
2022-09-09T08:53:55.381Z,1.97
2022-09-09T08:56:28.158Z,1.70
2022-09-09T08:59:04.063Z,1.73
2022-09-09T09:02:34.644Z,1.70
2022-09-09T09:05:35.192Z,1.50
2022-09-09T09:08:55.085Z,1.47
2022-09-09T09:11:24.826Z,1.20
2022-09-09T09:14:07.610Z,1.40
2022-09-09T09:17:12.514Z,1.40
2022-09-09T09:19:49.612Z,1.30
2022-09-09T09:22:45.376Z,1.50
2022-09-09T09:25:20.430Z,1.53
2022-09-09T09:28:23.227Z,1.50
2022-09-09T09:31:03.207Z,1.40
2022-09-09T09:33:56.415Z,1.50
2022-09-09T09:36:50.404Z,1.60
2022-09-09T09:42:33.085Z,1.50
2022-09-09T09:45:35.452Z,1.60
2022-09-09T09:48:14.701Z,1.60
2022-09-09T09:50:58.138Z,1.70
2022-09-09T09:53:35.506Z,1.67
2022-09-09T09:56:17.075Z,1.90
2022-09-09T09:58:57.765Z,1.50
2022-09-09T10:01:41.044Z,1.60
2022-09-09T10:04:22.030Z,1.40
2022-09-09T10:09:37.453Z,1.60
2022-09-09T10:12:45.547Z,1.40
2022-09-09T10:15:48.996Z,1.70
2022-09-09T10:18:47.655Z,1.30
2022-09-09T10:21:46.757Z,1.70
2022-09-09T10:24:53.822Z,1.70
2022-09-09T10:27:58.923Z,1.70
2022-09-09T10:30:59.758Z,1.50
2022-09-09T10:34:05.801Z,1.33
2022-09-09T10:36:42.554Z,1.60
2022-09-09T10:39:39.183Z,1.20
2022-09-09T10:42:16.429Z,1.20
2022-09-09T10:45:07.178Z,1.00
2022-09-09T10:48:03.023Z,1.20
2022-09-09T10:51:25.465Z,1.40
2022-09-09T10:54:24.905Z,1.40
2022-09-09T10:56:59.432Z,1.70
2022-09-09T10:59:37.545Z,1.50
2022-09-09T11:02:34.776Z,1.87
2022-09-09T11:05:30.757Z,1.80
2022-09-09T11:08:06.058Z,1.60
2022-09-09T11:11:03.534Z,1.70
2022-09-09T11:14:04.979Z,1.40
2022-09-09T11:16:59.943Z,1.53
2022-09-09T11:19:44.627Z,1.50
2022-09-09T11:22:37.221Z,1.70
2022-09-09T11:25:33.858Z,1.33
2022-09-09T11:28:36.224Z,1.70
2022-09-09T11:31:21.334Z,1.60
2022-09-09T11:34:20.185Z,1.60
2022-09-09T11:37:33.740Z,1.77
2022-09-09T11:40:28.408Z,1.40
2022-09-09T11:43:07.016Z,1.57
2022-09-09T11:45:37.551Z,1.50
2022-09-09T11:48:08.543Z,1.70
2022-09-09T11:50:43.325Z,1.70
2022-09-09T11:53:24.101Z,1.53
2022-09-09T11:56:17.780Z,1.60
2022-09-09T11:59:07.862Z,1.40
2022-09-09T12:02:25.463Z,1.40
2022-09-09T12:05:17.503Z,1.50
2022-09-09T12:08:23.886Z,1.57
2022-09-09T12:11:03.938Z,1.70
2022-09-09T12:13:35.001Z,1.60
2022-09-09T12:16:06.671Z,1.70
2022-09-09T12:18:41.660Z,1.50
2022-09-09T12:22:09.858Z,1.27
2022-09-09T12:24:50.430Z,1.47
2022-09-09T12:27:31.429Z,1.50
2022-09-09T12:30:03.431Z,1.57
2022-09-09T12:32:34.669Z,2.20
2022-09-09T12:35:24.235Z,2.00
2022-09-09T12:38:23.851Z,1.60
2022-09-09T12:40:59.735Z,1.60
2022-09-09T12:43:30.990Z,1.63
2022-09-09T12:46:07.699Z,1.70
2022-09-09T12:48:56.686Z,1.50
2022-09-09T12:51:33.751Z,1.50
2022-09-09T12:54:06.907Z,1.63
2022-09-09T12:56:37.360Z,2.13
2022-09-09T12:59:08.119Z,1.60
2022-09-09T13:01:39.376Z,1.30
2022-09-09T13:04:24.646Z,1.40
2022-09-09T13:06:54.696Z,1.30
2022-09-09T13:09:31.910Z,1.37
2022-09-09T13:12:03.945Z,1.23
2022-09-09T13:14:35.763Z,1.40
2022-09-09T13:17:06.856Z,1.47
2022-09-09T13:19:41.293Z,1.20
2022-09-09T13:22:22.324Z,1.30
2022-09-09T13:25:17.870Z,1.30
2022-09-09T13:28:06.247Z,1.20
2022-09-09T13:30:41.277Z,1.40
2022-09-09T13:33:21.587Z,1.50
2022-09-09T13:36:00.259Z,1.30
2022-09-09T13:38:31.414Z,1.33
2022-09-09T13:41:14.154Z,1.17
2022-09-09T13:43:48.748Z,1.23
2022-09-09T13:46:42.472Z,1.30
2022-09-09T13:49:30.582Z,1.20
2022-09-09T13:52:10.449Z,1.33
2022-09-09T13:54:41.225Z,1.20
2022-09-09T13:57:26.313Z,1.30
2022-09-09T14:00:05.741Z,1.20
2022-09-09T14:02:37.969Z,1.30
2022-09-09T14:07:57.077Z,1.23
2022-09-09T14:10:25.460Z,1.40
2022-09-09T14:12:57.428Z,1.50
2022-09-09T14:15:24.852Z,1.43
2022-09-09T14:17:57.377Z,1.50
2022-09-09T14:23:12.971Z,1.23
2022-09-09T14:25:44.941Z,1.40
2022-09-09T14:28:39.332Z,1.30
2022-09-09T14:31:23.330Z,1.60
2022-09-09T14:33:57.357Z,1.37
2022-09-09T14:36:28.315Z,1.50
2022-09-09T14:41:43.095Z,1.63
2022-09-09T14:44:12.997Z,1.53
2022-09-09T14:46:40.565Z,1.80
2022-09-09T14:49:16.472Z,1.50
2022-09-09T14:51:51.509Z,1.53
2022-09-09T14:54:24.286Z,1.67
2022-09-09T14:56:55.256Z,1.50
2022-09-09T14:59:29.145Z,1.50
2022-09-09T15:02:07.675Z,1.43
2022-09-09T15:04:36.527Z,1.40
2022-09-09T15:07:17.248Z,1.50
2022-09-09T15:09:56.765Z,1.60
2022-09-09T15:12:26.363Z,1.53
2022-09-09T15:14:57.071Z,1.50
2022-09-09T15:20:51.662Z,1.47
2022-09-09T15:23:28.757Z,1.37
2022-09-09T15:25:58.817Z,1.40
2022-09-09T15:28:32.531Z,1.40
2022-09-09T15:31:09.934Z,1.60
2022-09-09T15:33:40.719Z,1.30
2022-09-09T15:36:25.460Z,1.37
2022-09-09T15:38:55.453Z,1.40
2022-09-09T15:41:27.485Z,1.57
2022-09-09T15:44:00.184Z,1.40
2022-09-09T15:47:00.329Z,1.40
2022-09-09T15:49:31.909Z,1.40
2022-09-09T15:52:04.541Z,1.50
2022-09-09T15:54:35.912Z,1.53
2022-09-09T15:57:08.262Z,1.43
2022-09-09T15:59:39.397Z,1.30
2022-09-09T16:02:12.195Z,1.33
2022-09-09T16:04:44.000Z,1.40
2022-09-09T16:07:12.899Z,1.37
2022-09-09T16:09:41.470Z,1.30
2022-09-09T16:12:17.225Z,1.20
2022-09-09T16:14:46.068Z,1.33
2022-09-09T16:17:16.368Z,1.37
2022-09-09T16:19:49.288Z,1.40
2022-09-09T16:22:22.888Z,1.40
2022-09-09T16:24:53.925Z,1.33
2022-09-09T16:27:29.229Z,1.40
2022-09-09T16:30:01.015Z,1.60
2022-09-09T16:32:30.886Z,1.37
2022-09-09T16:35:02.292Z,1.60
2022-09-09T16:40:14.061Z,1.50
2022-09-09T16:42:43.945Z,1.50
2022-09-09T16:48:02.097Z,1.53
2022-09-09T16:53:25.621Z,1.50
2022-09-09T16:55:56.144Z,1.70
2022-09-09T16:58:25.368Z,1.50
2022-09-09T17:01:00.590Z,1.70
2022-09-09T17:03:40.743Z,1.77
2022-09-09T17:06:15.634Z,1.70
2022-09-09T17:11:29.540Z,1.70
2022-09-09T17:14:01.795Z,1.80
2022-09-09T17:16:32.680Z,1.67
2022-09-09T17:19:02.651Z,1.80
2022-09-09T17:21:32.200Z,2.00
2022-09-09T17:24:01.404Z,1.87
2022-09-09T17:26:40.445Z,2.00
2022-09-09T17:29:10.369Z,2.20
2022-09-09T17:31:40.254Z,2.07
2022-09-09T17:34:11.792Z,2.40
2022-09-09T17:36:40.894Z,2.10
2022-09-09T17:39:11.999Z,2.20
2022-09-09T17:41:42.265Z,2.20
2022-09-09T17:46:56.196Z,2.20
2022-09-09T17:49:28.704Z,2.20
2022-09-09T17:51:59.182Z,2.30
2022-09-09T17:54:33.095Z,2.20
2022-09-09T17:57:01.978Z,2.10
2022-09-09T17:59:31.600Z,2.10
2022-09-09T18:02:00.611Z,2.20
2022-09-09T18:04:30.819Z,2.30
2022-09-09T18:07:04.216Z,1.90
2022-09-09T18:09:34.269Z,2.10
2022-09-09T18:12:02.591Z,1.93
2022-09-09T18:14:34.808Z,1.87
2022-09-09T18:17:07.013Z,1.90
2022-09-09T18:19:37.826Z,2.10
2022-09-09T18:22:09.377Z,1.90
2022-09-09T18:24:41.421Z,1.63
2022-09-09T18:27:15.549Z,1.80
2022-09-09T18:29:46.447Z,2.10
2022-09-09T18:32:17.480Z,1.93
2022-09-09T18:34:50.676Z,2.00
2022-09-09T18:37:21.700Z,2.13
2022-09-09T18:39:52.160Z,2.30
2022-09-09T18:42:34.231Z,2.43
2022-09-09T18:45:03.635Z,2.20
2022-09-09T18:47:35.381Z,2.10
2022-09-09T18:50:07.829Z,2.30
2022-09-09T18:52:38.564Z,2.10
2022-09-09T18:55:11.750Z,2.20
2022-09-09T18:57:41.447Z,2.00
2022-09-09T19:00:12.722Z,1.97
2022-09-09T19:02:43.335Z,2.00
2022-09-09T19:05:10.830Z,2.30
2022-09-09T19:07:43.122Z,2.33
2022-09-09T19:10:20.714Z,2.20
2022-09-09T19:12:50.498Z,2.30
2022-09-09T19:15:21.373Z,2.40
2022-09-09T19:17:51.566Z,2.23
2022-09-09T19:20:24.336Z,2.30
2022-09-09T19:22:52.227Z,2.60
2022-09-09T19:25:28.030Z,2.30
2022-09-09T19:28:03.328Z,2.30
2022-09-09T19:30:31.029Z,2.60
2022-09-09T19:33:04.041Z,2.47
2022-09-09T19:35:35.645Z,2.43
2022-09-09T19:38:03.214Z,2.83
2022-09-09T19:40:35.616Z,2.77
2022-09-09T19:43:05.602Z,3.00
2022-09-09T19:45:38.780Z,3.03
2022-09-09T19:48:09.521Z,2.90
2022-09-09T19:53:23.804Z,2.90
2022-09-09T19:55:57.139Z,3.17
2022-09-09T19:58:29.453Z,3.30
2022-09-09T20:01:06.425Z,3.30
2022-09-09T20:03:38.317Z,3.40
2022-09-09T20:06:09.469Z,3.07
2022-09-09T20:08:39.332Z,3.17
2022-09-09T20:11:10.552Z,3.37
2022-09-09T20:13:41.734Z,3.27
2022-09-09T20:19:02.974Z,3.40
2022-09-09T20:21:41.871Z,3.40
2022-09-09T20:24:19.412Z,3.30
2022-09-09T20:26:49.259Z,3.80
2022-09-09T20:29:19.931Z,3.30
2022-09-09T20:31:51.870Z,3.63
2022-09-09T20:34:22.770Z,3.50
2022-09-09T20:36:55.572Z,3.67
2022-09-09T20:39:33.049Z,3.57
2022-09-09T20:42:03.006Z,3.60
2022-09-09T20:44:32.187Z,4.10
2022-09-09T20:47:08.905Z,3.93
2022-09-09T20:49:39.301Z,3.80
2022-09-09T20:52:14.165Z,3.60
2022-09-09T20:54:44.782Z,3.73
2022-09-09T20:57:14.466Z,4.13
2022-09-09T20:59:45.783Z,3.40
2022-09-09T21:02:14.687Z,3.70
2022-09-09T21:04:52.088Z,4.20
2022-09-09T21:07:22.763Z,3.87
2022-09-09T21:09:52.127Z,3.80
2022-09-09T21:12:22.861Z,4.20
2022-09-09T21:14:54.241Z,3.90
2022-09-09T21:17:24.847Z,4.10
2022-09-09T21:19:56.368Z,4.23
2022-09-09T21:22:27.573Z,3.90
2022-09-09T21:25:00.814Z,3.93
2022-09-09T21:27:30.179Z,4.00
2022-09-09T21:32:44.239Z,4.07
2022-09-09T21:35:13.387Z,4.00
2022-09-09T21:37:40.932Z,4.10
2022-09-09T21:40:12.726Z,3.80
2022-09-09T21:42:44.180Z,3.90
2022-09-09T21:45:15.123Z,3.70
2022-09-09T21:47:53.697Z,3.83
2022-09-09T21:50:28.532Z,4.10
2022-09-09T21:53:00.754Z,4.17
2022-09-09T21:55:29.180Z,4.00
2022-09-09T21:57:57.158Z,4.67
2022-09-09T22:00:28.986Z,4.17
2022-09-09T22:03:08.789Z,4.40
2022-09-09T22:05:44.110Z,4.40
2022-09-09T22:08:13.886Z,4.30
2022-09-09T22:10:49.711Z,4.40
2022-09-09T22:13:18.050Z,4.30
2022-09-09T22:15:50.202Z,4.30
2022-09-09T22:18:21.142Z,4.00
2022-09-09T22:20:50.794Z,3.57
2022-09-09T22:23:21.838Z,4.00
2022-09-09T22:25:57.035Z,3.90
2022-09-09T22:28:27.507Z,4.03
2022-09-09T22:33:41.277Z,3.63
2022-09-09T22:36:12.441Z,3.50
2022-09-09T22:38:43.306Z,3.20
2022-09-09T22:41:13.889Z,2.83
2022-09-09T22:43:46.140Z,3.50
2022-09-09T22:46:14.300Z,3.00
2022-09-09T22:48:43.855Z,3.23
2022-09-09T22:51:14.118Z,3.00
2022-09-09T22:53:46.854Z,3.17
2022-09-09T22:56:21.972Z,3.10
2022-09-09T22:58:55.725Z,3.10
2022-09-09T23:01:34.064Z,2.90
2022-09-09T23:04:03.461Z,3.20
2022-09-09T23:06:35.625Z,3.30
2022-09-09T23:09:07.793Z,3.30
2022-09-09T23:11:37.064Z,3.33
2022-09-09T23:14:12.944Z,3.00
2022-09-09T23:16:44.741Z,2.73
2022-09-09T23:19:16.029Z,2.70
2022-09-09T23:21:48.444Z,2.50
2022-09-09T23:24:17.732Z,2.70
2022-09-09T23:26:47.439Z,2.30
2022-09-09T23:29:15.301Z,2.60
2022-09-09T23:31:45.783Z,2.63
2022-09-09T23:34:14.192Z,2.83
2022-09-09T23:36:43.263Z,2.77
2022-09-09T23:39:12.291Z,2.90
2022-09-09T23:41:42.416Z,2.90
2022-09-09T23:44:12.543Z,2.60
2022-09-09T23:46:44.155Z,2.93
2022-09-09T23:49:12.980Z,2.60
2022-09-09T23:51:42.874Z,2.87
2022-09-09T23:56:56.962Z,2.80
2022-09-09T23:59:28.225Z,2.70
